createdAt,value
2018-06-16T00:00:52.915Z,0.00
2018-06-16T00:01:52.849Z,0.00
2018-06-16T00:02:52.822Z,0.00
2018-06-16T00:03:52.800Z,0.00
2018-06-16T00:04:53.640Z,0.00
2018-06-16T00:05:52.808Z,0.00
2018-06-16T00:06:52.786Z,0.00
2018-06-16T00:07:52.768Z,0.00
2018-06-16T00:08:53.640Z,0.00
2018-06-16T00:09:52.668Z,0.00
2018-06-16T00:10:52.651Z,0.00
2018-06-16T00:11:52.611Z,0.00
2018-06-16T00:12:52.647Z,0.00
2018-06-16T00:13:52.562Z,0.00
2018-06-16T00:14:52.542Z,0.00
2018-06-16T00:15:53.147Z,0.00
2018-06-16T00:16:52.503Z,0.00
2018-06-16T00:17:52.516Z,0.00
2018-06-16T00:18:52.446Z,0.00
2018-06-16T00:19:53.137Z,0.00
2018-06-16T00:20:52.427Z,0.00
2018-06-16T00:21:52.377Z,0.00
2018-06-16T00:22:52.407Z,0.00
2018-06-16T00:23:53.157Z,0.00
2018-06-16T00:24:52.309Z,0.00
2018-06-16T00:25:52.280Z,0.00
2018-06-16T00:26:53.138Z,0.00
2018-06-16T00:27:52.282Z,0.00
2018-06-16T00:28:52.228Z,0.00
2018-06-16T00:29:52.185Z,0.00
2018-06-16T00:30:53.141Z,0.00
2018-06-16T00:31:52.141Z,0.00
2018-06-16T00:32:52.160Z,0.00
2018-06-16T00:33:52.105Z,0.00
2018-06-16T00:34:52.644Z,0.00
2018-06-16T00:35:52.055Z,0.00
2018-06-16T00:36:52.023Z,0.00
2018-06-16T00:37:52.040Z,0.00
2018-06-16T00:38:52.649Z,0.00
2018-06-16T00:39:52.007Z,0.00
2018-06-16T00:40:51.953Z,0.00
2018-06-16T00:41:51.905Z,0.00
2018-06-16T00:42:52.641Z,0.00
2018-06-16T00:43:51.860Z,0.00
2018-06-16T00:44:51.877Z,0.00
2018-06-16T00:45:52.644Z,0.00
2018-06-16T00:46:51.785Z,0.00
2018-06-16T00:47:51.818Z,0.00
2018-06-16T00:48:51.740Z,0.00
2018-06-16T00:49:51.711Z,0.00
2018-06-16T00:50:51.763Z,0.00
2018-06-16T00:51:51.666Z,0.00
2018-06-16T00:52:51.647Z,0.00
2018-06-16T00:53:51.624Z,0.00
2018-06-16T00:54:51.598Z,0.00
2018-06-16T00:55:54.051Z,0.00
2018-06-16T00:56:52.150Z,0.00
2018-06-16T00:57:51.559Z,0.00
2018-06-16T00:58:51.503Z,0.00
2018-06-16T00:59:51.479Z,0.00
2018-06-16T01:00:51.510Z,0.00
2018-06-16T01:01:51.476Z,0.00
2018-06-16T01:02:51.411Z,0.00
2018-06-16T01:03:52.145Z,0.00
2018-06-16T01:04:51.376Z,0.00
2018-06-16T01:05:51.343Z,0.00
2018-06-16T01:06:51.713Z,0.00
2018-06-16T01:07:53.568Z,0.00
2018-06-16T01:08:52.146Z,0.00
2018-06-16T01:09:51.244Z,0.00
2018-06-16T01:10:51.233Z,0.00
2018-06-16T01:11:51.700Z,0.00
2018-06-16T01:12:51.241Z,0.00
2018-06-16T01:13:51.651Z,0.00
2018-06-16T01:14:51.128Z,0.00
2018-06-16T01:15:51.649Z,0.00
2018-06-16T01:16:51.079Z,0.00
2018-06-16T01:17:51.099Z,0.00
2018-06-16T01:18:51.201Z,0.00
2018-06-16T01:19:51.010Z,0.00
2018-06-16T01:20:50.993Z,0.00
2018-06-16T01:21:51.649Z,0.00
2018-06-16T01:22:53.065Z,0.00
2018-06-16T01:23:50.975Z,0.00
2018-06-16T01:24:51.649Z,0.00
2018-06-16T01:25:50.867Z,0.00
2018-06-16T01:26:50.845Z,0.00
2018-06-16T01:27:51.651Z,0.00
2018-06-16T01:28:50.852Z,0.00
2018-06-16T01:29:50.776Z,0.00
2018-06-16T01:30:50.749Z,0.00
2018-06-16T01:31:51.665Z,0.00
2018-06-16T01:32:50.705Z,0.00
2018-06-16T01:33:50.744Z,0.00
2018-06-16T01:34:51.153Z,0.00
2018-06-16T01:35:50.632Z,0.00
2018-06-16T01:36:50.608Z,0.00
2018-06-16T01:37:50.583Z,0.00
2018-06-16T01:38:50.708Z,0.00
2018-06-16T01:39:50.536Z,0.00
2018-06-16T01:40:50.573Z,0.00
2018-06-16T01:41:50.492Z,0.00
2018-06-16T01:42:51.158Z,0.00
2018-06-16T01:43:50.444Z,0.00
2018-06-16T01:44:50.422Z,0.00
2018-06-16T01:45:50.708Z,0.00
2018-06-16T01:46:50.381Z,0.00
2018-06-16T01:47:50.351Z,0.00
2018-06-16T01:48:51.167Z,0.00
2018-06-16T01:49:50.343Z,0.00
2018-06-16T01:50:51.162Z,0.00
2018-06-16T01:51:50.253Z,0.00
2018-06-16T01:52:50.283Z,0.00
2018-06-16T01:53:51.158Z,0.00
2018-06-16T01:54:50.182Z,0.00
2018-06-16T01:55:50.161Z,0.00
2018-06-16T01:56:50.141Z,0.00
2018-06-16T01:57:50.211Z,0.00
2018-06-16T01:58:50.085Z,0.00
2018-06-16T01:59:50.066Z,0.00
2018-06-16T02:00:50.086Z,4.00
2018-06-16T02:01:50.017Z,4.00
2018-06-16T02:02:50.659Z,0.00
2018-06-16T02:03:49.969Z,0.00
2018-06-16T02:04:49.948Z,4.00
2018-06-16T02:05:49.961Z,4.00
2018-06-16T02:06:49.937Z,4.00
2018-06-16T02:07:49.874Z,4.00
2018-06-16T02:08:49.849Z,4.00
2018-06-16T02:09:49.825Z,8.00
2018-06-16T02:10:50.685Z,4.00
2018-06-16T02:11:49.829Z,8.00
2018-06-16T02:12:49.756Z,4.00
2018-06-16T02:13:49.731Z,8.00
2018-06-16T02:14:49.712Z,8.00
2018-06-16T02:15:49.684Z,12.00
2018-06-16T02:16:49.723Z,12.00
2018-06-16T02:17:49.680Z,12.00
2018-06-16T02:18:49.613Z,12.00
2018-06-16T02:19:50.171Z,16.00
2018-06-16T02:20:49.566Z,16.00
2018-06-16T02:21:49.545Z,20.00
2018-06-16T02:22:49.573Z,24.00
2018-06-16T02:23:49.491Z,24.00
2018-06-16T02:24:49.472Z,28.00
2018-06-16T02:25:49.449Z,28.00
2018-06-16T02:26:49.460Z,32.00
2018-06-16T02:27:49.482Z,36.00
2018-06-16T02:28:50.165Z,40.00
2018-06-16T02:29:49.359Z,44.00
2018-06-16T02:30:49.326Z,52.00
2018-06-16T02:31:50.169Z,52.00
2018-06-16T02:32:49.318Z,60.00
2018-06-16T02:33:49.726Z,64.00
2018-06-16T02:34:49.231Z,68.00
2018-06-16T02:35:49.206Z,76.00
2018-06-16T02:36:50.166Z,80.00
2018-06-16T02:37:49.234Z,88.00
2018-06-16T02:38:49.135Z,96.00
2018-06-16T02:39:49.111Z,104.00
2018-06-16T02:40:49.089Z,116.00
2018-06-16T02:41:49.669Z,124.00
2018-06-16T02:42:49.086Z,132.00
2018-06-16T02:43:49.016Z,140.00
2018-06-16T02:44:49.037Z,148.00
2018-06-16T02:45:49.674Z,160.00
2018-06-16T02:46:48.945Z,164.00
2018-06-16T02:47:48.933Z,176.00
2018-06-16T02:48:49.241Z,188.00
2018-06-16T02:49:48.872Z,200.00
2018-06-16T02:50:48.853Z,216.00
2018-06-16T02:51:49.670Z,232.00
2018-06-16T02:52:48.815Z,248.00
2018-06-16T02:53:48.835Z,260.00
2018-06-16T02:54:49.672Z,276.00
2018-06-16T02:55:49.675Z,292.00
2018-06-16T02:56:48.724Z,312.00
2018-06-16T02:57:48.687Z,332.00
2018-06-16T02:58:48.733Z,348.00
2018-06-16T02:59:48.635Z,368.00
2018-06-16T03:00:48.611Z,392.00
2018-06-16T03:01:48.586Z,420.00
2018-06-16T03:02:48.562Z,440.00
2018-06-16T03:03:48.583Z,460.00
2018-06-16T03:04:48.512Z,476.00
2018-06-16T03:05:49.176Z,496.00
2018-06-16T03:06:48.522Z,516.00
2018-06-16T03:07:48.447Z,532.00
2018-06-16T03:08:48.423Z,556.00
2018-06-16T03:09:49.174Z,584.00
2018-06-16T03:10:48.441Z,620.00
2018-06-16T03:11:48.405Z,656.00
2018-06-16T03:12:49.176Z,692.00
2018-06-16T03:13:48.321Z,716.00
2018-06-16T03:14:48.274Z,740.00
2018-06-16T03:15:48.299Z,772.00
2018-06-16T03:16:48.230Z,800.00
2018-06-16T03:17:49.084Z,836.00
2018-06-16T03:18:48.195Z,868.00
2018-06-16T03:19:48.678Z,904.00
2018-06-16T03:20:48.181Z,936.00
2018-06-16T03:21:48.160Z,968.00
2018-06-16T03:22:48.129Z,996.00
2018-06-16T03:23:48.681Z,1016.00
2018-06-16T03:24:48.055Z,1044.00
2018-06-16T03:25:48.038Z,1076.00
2018-06-16T03:26:48.287Z,1116.00
2018-06-16T03:27:47.966Z,1156.00
2018-06-16T03:28:47.945Z,1200.00
2018-06-16T03:29:47.915Z,1252.00
2018-06-16T03:30:47.905Z,1304.00
2018-06-16T03:31:47.931Z,1364.00
2018-06-16T03:32:47.850Z,1416.00
2018-06-16T03:33:47.824Z,1480.00
2018-06-16T03:34:47.809Z,1560.00
2018-06-16T03:35:47.779Z,1636.00
2018-06-16T03:36:47.798Z,1712.00
2018-06-16T03:37:47.735Z,1784.00
2018-06-16T03:38:47.707Z,1848.00
2018-06-16T03:39:48.201Z,1916.00
2018-06-16T03:40:47.659Z,1980.00
2018-06-16T03:41:47.677Z,2060.00
2018-06-16T03:42:47.608Z,2140.00
2018-06-16T03:43:47.584Z,2216.00
2018-06-16T03:44:47.563Z,2304.00
2018-06-16T03:45:47.537Z,2384.00
2018-06-16T03:46:47.559Z,2452.00
2018-06-16T03:47:47.490Z,2476.00
2018-06-16T03:48:47.528Z,2484.00
2018-06-16T03:49:47.446Z,2464.00
2018-06-16T03:50:47.419Z,2424.00
2018-06-16T03:51:47.396Z,2396.00
2018-06-16T03:52:48.187Z,2384.00
2018-06-16T03:53:47.391Z,2392.00
2018-06-16T03:54:47.755Z,2420.00
2018-06-16T03:55:47.301Z,2468.00
2018-06-16T03:56:47.734Z,2508.00
2018-06-16T03:57:47.263Z,2532.00
2018-06-16T03:58:47.230Z,2544.00
2018-06-16T03:59:47.265Z,2560.00
2018-06-16T04:00:47.694Z,2588.00
2018-06-16T04:01:47.192Z,2636.00
2018-06-16T04:02:47.159Z,2692.00
2018-06-16T04:03:47.118Z,2748.00
2018-06-16T04:04:47.134Z,2800.00
2018-06-16T04:05:47.138Z,2872.00
2018-06-16T04:06:47.688Z,2936.00
2018-06-16T04:07:47.024Z,2996.00
2018-06-16T04:08:47.002Z,3052.00
2018-06-16T04:09:47.011Z,3112.00
2018-06-16T04:10:47.249Z,3188.00
2018-06-16T04:11:46.930Z,3276.00
2018-06-16T04:12:46.951Z,3376.00
2018-06-16T04:13:46.880Z,3468.00
2018-06-16T04:14:46.881Z,3528.00
2018-06-16T04:15:46.879Z,3596.00
2018-06-16T04:16:46.857Z,3712.00
2018-06-16T04:17:47.688Z,3844.00
2018-06-16T04:18:46.810Z,3980.00
2018-06-16T04:19:46.746Z,4124.00
2018-06-16T04:20:47.692Z,4252.00
2018-06-16T04:21:46.741Z,4340.00
2018-06-16T04:22:46.674Z,4420.00
2018-06-16T04:23:46.654Z,4504.00
2018-06-16T04:24:47.195Z,4604.00
2018-06-16T04:25:46.607Z,4744.00
2018-06-16T04:26:46.631Z,4872.00
2018-06-16T04:27:46.559Z,4976.00
2018-06-16T04:28:46.747Z,5092.00
2018-06-16T04:29:46.522Z,5232.00
2018-06-16T04:30:46.491Z,5416.00
2018-06-16T04:31:46.509Z,5616.00
2018-06-16T04:32:46.445Z,5780.00
2018-06-16T04:33:46.485Z,5840.00
2018-06-16T04:34:46.407Z,5784.00
2018-06-16T04:35:47.195Z,5720.00
2018-06-16T04:36:46.409Z,5704.00
2018-06-16T04:37:46.333Z,5816.00
2018-06-16T04:38:46.748Z,6032.00
2018-06-16T04:39:46.335Z,6320.00
2018-06-16T04:40:46.283Z,6632.00
2018-06-16T04:41:47.203Z,6932.00
2018-06-16T04:42:46.225Z,7236.00
2018-06-16T04:43:46.197Z,7516.00
2018-06-16T04:44:46.219Z,7744.00
2018-06-16T04:45:46.737Z,7908.00
2018-06-16T04:46:46.132Z,8032.00
2018-06-16T04:47:46.701Z,8112.00
2018-06-16T04:48:46.087Z,8128.00
2018-06-16T04:49:46.103Z,8132.00
2018-06-16T04:50:46.701Z,8076.00
2018-06-16T04:51:46.064Z,7936.00
2018-06-16T04:52:45.999Z,7740.00
2018-06-16T04:53:46.022Z,7528.00
2018-06-16T04:54:45.953Z,7388.00
2018-06-16T04:55:45.935Z,7352.00
2018-06-16T04:56:45.956Z,7388.00
2018-06-16T04:57:45.890Z,7488.00
2018-06-16T04:58:46.254Z,7640.00
2018-06-16T04:59:45.845Z,7868.00
2018-06-16T05:00:45.830Z,8044.00
2018-06-16T05:01:46.252Z,8048.00
2018-06-16T05:02:45.781Z,8028.00
2018-06-16T05:03:45.759Z,8072.00
2018-06-16T05:04:46.701Z,8156.00
2018-06-16T05:05:45.725Z,9132.00
2018-06-16T05:06:45.750Z,8460.00
2018-06-16T05:07:45.682Z,8508.00
2018-06-16T05:08:46.204Z,8328.00
2018-06-16T05:09:45.690Z,8192.00
2018-06-16T05:10:45.610Z,8084.00
2018-06-16T05:11:45.628Z,8032.00
2018-06-16T05:12:46.205Z,8032.00
2018-06-16T05:13:45.596Z,8060.00
2018-06-16T05:14:45.528Z,8084.00
2018-06-16T05:15:46.203Z,8044.00
2018-06-16T05:16:45.489Z,7944.00
2018-06-16T05:17:45.521Z,7820.00
2018-06-16T05:18:45.440Z,7696.00
2018-06-16T05:19:46.209Z,7592.00
2018-06-16T05:20:45.413Z,7512.00
2018-06-16T05:21:45.379Z,7464.00
2018-06-16T05:22:45.400Z,7464.00
2018-06-16T05:23:45.346Z,7512.00
2018-06-16T05:24:45.314Z,7568.00
2018-06-16T05:25:45.348Z,7560.00
2018-06-16T05:26:45.316Z,7492.00
2018-06-16T05:27:45.265Z,7444.00
2018-06-16T05:28:45.231Z,7448.00
2018-06-16T05:29:45.206Z,7496.00
2018-06-16T05:30:45.266Z,7556.00
2018-06-16T05:31:45.231Z,7668.00
2018-06-16T05:32:45.147Z,7796.00
2018-06-16T05:33:45.128Z,7900.00
2018-06-16T05:34:45.711Z,7960.00
2018-06-16T05:35:45.086Z,7976.00
2018-06-16T05:36:45.111Z,7988.00
2018-06-16T05:37:45.045Z,8028.00
2018-06-16T05:38:45.026Z,8116.00
2018-06-16T05:39:45.004Z,8188.00
2018-06-16T05:40:44.980Z,8240.00
2018-06-16T05:41:45.019Z,8244.00
2018-06-16T05:42:44.939Z,8208.00
2018-06-16T05:43:44.918Z,8168.00
2018-06-16T05:44:44.933Z,8164.00
2018-06-16T05:45:45.715Z,8208.00
2018-06-16T05:46:44.893Z,8268.00
2018-06-16T05:47:44.880Z,8340.00
2018-06-16T05:48:44.817Z,8412.00
2018-06-16T05:49:44.794Z,8464.00
2018-06-16T05:50:45.725Z,8492.00
2018-06-16T05:51:44.753Z,8500.00
2018-06-16T05:52:44.800Z,8520.00
2018-06-16T05:53:44.712Z,8576.00
2018-06-16T05:54:44.692Z,8680.00
2018-06-16T05:55:45.218Z,8812.00
2018-06-16T05:56:44.655Z,8936.00
2018-06-16T05:57:44.683Z,9020.00
2018-06-16T05:58:44.619Z,9064.00
2018-06-16T05:59:44.589Z,9092.00
2018-06-16T06:00:45.217Z,9108.00
2018-06-16T06:01:44.548Z,9168.00
2018-06-16T06:02:44.589Z,9304.00
2018-06-16T06:03:44.512Z,9484.00
2018-06-16T06:04:44.489Z,9672.00
2018-06-16T06:05:45.235Z,9876.00
2018-06-16T06:06:44.488Z,10076.00
2018-06-16T06:07:44.505Z,10296.00
2018-06-16T06:08:44.411Z,10536.00
2018-06-16T06:09:44.390Z,10876.00
2018-06-16T06:10:44.374Z,11328.00
2018-06-16T06:11:45.238Z,11228.00
2018-06-16T06:12:44.378Z,11252.00
2018-06-16T06:13:44.352Z,11284.00
2018-06-16T06:14:44.298Z,11276.00
2018-06-16T06:15:44.367Z,11232.00
2018-06-16T06:16:44.262Z,11244.00
2018-06-16T06:17:44.229Z,11264.00
2018-06-16T06:18:44.246Z,11204.00
2018-06-16T06:19:44.235Z,11120.00
2018-06-16T06:20:44.178Z,11252.00
2018-06-16T06:21:44.167Z,11548.00
2018-06-16T06:22:44.137Z,12044.00
2018-06-16T06:23:44.156Z,12720.00
2018-06-16T06:24:44.098Z,13356.00
2018-06-16T06:25:44.073Z,13780.00
2018-06-16T06:26:44.110Z,14016.00
2018-06-16T06:27:44.035Z,14180.00
2018-06-16T06:28:44.016Z,14480.00
2018-06-16T06:29:43.993Z,14956.00
2018-06-16T06:30:43.980Z,15364.00
2018-06-16T06:31:43.996Z,15616.00
2018-06-16T06:32:43.936Z,15760.00
2018-06-16T06:33:43.923Z,15916.00
2018-06-16T06:34:43.896Z,16088.00
2018-06-16T06:35:43.925Z,16344.00
2018-06-16T06:36:43.861Z,16832.00
2018-06-16T06:37:43.843Z,17056.00
2018-06-16T06:38:43.821Z,17248.00
2018-06-16T06:39:43.807Z,17408.00
2018-06-16T06:40:43.825Z,17568.00
2018-06-16T06:41:43.765Z,17632.00
2018-06-16T06:42:43.809Z,17600.00
2018-06-16T06:43:43.736Z,17696.00
2018-06-16T06:44:43.711Z,17920.00
2018-06-16T06:45:43.694Z,18208.00
2018-06-16T06:46:43.673Z,18528.00
2018-06-16T06:47:43.702Z,18816.00
2018-06-16T06:48:43.637Z,18880.00
2018-06-16T06:49:43.621Z,18944.00
2018-06-16T06:50:43.600Z,18976.00
2018-06-16T06:51:43.638Z,19200.00
2018-06-16T06:52:43.612Z,19392.00
2018-06-16T06:53:43.593Z,19488.00
2018-06-16T06:54:43.526Z,19552.00
2018-06-16T06:55:43.520Z,19712.00
2018-06-16T06:56:43.493Z,19840.00
2018-06-16T06:57:43.530Z,20000.00
2018-06-16T06:58:43.479Z,20128.00
2018-06-16T06:59:43.439Z,20192.00
2018-06-16T07:00:43.425Z,20256.00
2018-06-16T07:01:43.402Z,20352.00
2018-06-16T07:02:43.430Z,20448.00
2018-06-16T07:03:43.417Z,20640.00
2018-06-16T07:04:43.353Z,20896.00
2018-06-16T07:05:43.335Z,20992.00
2018-06-16T07:06:43.320Z,21024.00
2018-06-16T07:07:43.343Z,21120.00
2018-06-16T07:08:43.327Z,21184.00
2018-06-16T07:09:43.268Z,21248.00
2018-06-16T07:10:43.271Z,21216.00
2018-06-16T07:11:43.233Z,21152.00
2018-06-16T07:12:43.270Z,21120.00
2018-06-16T07:13:43.199Z,21088.00
2018-06-16T07:14:43.185Z,21088.00
2018-06-16T07:15:43.166Z,21184.00
2018-06-16T07:16:43.152Z,21152.00
2018-06-16T07:17:43.304Z,21184.00
2018-06-16T07:18:43.165Z,20992.00
2018-06-16T07:19:43.112Z,20896.00
2018-06-16T07:20:43.084Z,20640.00
2018-06-16T07:21:43.067Z,20512.00
2018-06-16T07:22:43.914Z,20416.00
2018-06-16T07:23:43.079Z,20288.00
2018-06-16T07:24:43.018Z,20224.00
2018-06-16T07:25:43.045Z,20384.00
2018-06-16T07:26:42.984Z,20448.00
2018-06-16T07:27:44.708Z,20416.00
2018-06-16T07:28:42.953Z,20192.00
2018-06-16T07:29:42.954Z,19904.00
2018-06-16T07:30:42.993Z,19520.00
2018-06-16T07:31:43.014Z,19136.00
2018-06-16T07:32:43.748Z,18912.00
2018-06-16T07:33:42.907Z,18912.00
2018-06-16T07:34:42.865Z,18944.00
2018-06-16T07:35:42.951Z,18976.00
2018-06-16T07:36:42.871Z,19040.00
2018-06-16T07:37:42.809Z,19072.00
2018-06-16T07:38:42.790Z,19008.00
2018-06-16T07:39:42.784Z,19008.00
2018-06-16T07:40:42.758Z,19040.00
2018-06-16T07:41:42.808Z,19008.00
2018-06-16T07:42:42.749Z,19104.00
2018-06-16T07:43:42.717Z,19232.00
2018-06-16T07:44:42.700Z,19584.00
2018-06-16T07:45:42.678Z,19712.00
2018-06-16T07:46:45.703Z,19584.00
2018-06-16T07:47:42.643Z,19456.00
2018-06-16T07:48:42.670Z,19328.00
2018-06-16T07:49:42.618Z,19232.00
2018-06-16T07:50:42.770Z,19136.00
2018-06-16T07:51:42.642Z,18976.00
2018-06-16T07:52:42.565Z,18976.00
2018-06-16T07:53:42.551Z,19040.00
2018-06-16T07:54:42.818Z,19104.00
2018-06-16T07:55:42.519Z,18848.00
2018-06-16T07:56:42.621Z,18560.00
2018-06-16T07:57:42.532Z,18336.00
2018-06-16T07:58:42.511Z,18048.00
2018-06-16T07:59:42.461Z,17888.00
2018-06-16T08:00:42.476Z,17984.00
2018-06-16T08:01:42.486Z,18080.00
2018-06-16T08:02:42.420Z,18144.00
2018-06-16T08:03:42.387Z,18144.00
2018-06-16T08:04:42.383Z,18400.00
2018-06-16T08:05:42.372Z,18784.00
2018-06-16T08:06:42.429Z,19136.00
2018-06-16T08:07:42.337Z,19552.00
2018-06-16T08:08:42.351Z,19840.00
2018-06-16T08:09:42.293Z,20160.00
2018-06-16T08:10:42.280Z,20352.00
2018-06-16T08:11:42.261Z,20544.00
2018-06-16T08:12:42.296Z,20768.00
2018-06-16T08:13:42.225Z,20928.00
2018-06-16T08:14:42.303Z,21024.00
2018-06-16T08:15:42.203Z,21088.00
2018-06-16T08:16:42.193Z,21152.00
2018-06-16T08:17:42.178Z,21120.00
2018-06-16T08:18:42.148Z,21216.00
2018-06-16T08:19:42.178Z,21504.00
2018-06-16T08:20:42.117Z,21888.00
2018-06-16T08:21:42.123Z,22336.00
2018-06-16T08:22:42.163Z,22624.00
2018-06-16T08:23:42.079Z,22528.00
2018-06-16T08:24:42.097Z,22368.00
2018-06-16T08:25:42.671Z,22400.00
2018-06-16T08:26:42.022Z,22272.00
2018-06-16T08:27:42.020Z,22304.00
2018-06-16T08:28:41.993Z,22272.00
2018-06-16T08:29:42.027Z,22400.00
2018-06-16T08:30:41.977Z,22144.00
2018-06-16T08:31:41.946Z,21856.00
2018-06-16T08:32:41.938Z,21600.00
2018-06-16T08:33:41.913Z,21408.00
2018-06-16T08:34:42.003Z,20928.00
2018-06-16T08:35:41.885Z,20672.00
2018-06-16T08:36:41.869Z,20736.00
2018-06-16T08:37:41.897Z,20960.00
2018-06-16T08:38:41.836Z,21152.00
2018-06-16T08:39:41.824Z,20992.00
2018-06-16T08:40:41.849Z,20960.00
2018-06-16T08:41:41.792Z,21184.00
2018-06-16T08:42:41.776Z,21632.00
2018-06-16T08:43:41.763Z,21984.00
2018-06-16T08:44:41.778Z,22368.00
2018-06-16T08:45:41.777Z,22368.00
2018-06-16T08:46:41.760Z,22432.00
2018-06-16T08:47:41.708Z,22272.00
2018-06-16T08:48:42.324Z,21728.00
2018-06-16T08:49:41.668Z,21344.00
2018-06-16T08:50:41.655Z,21184.00
2018-06-16T08:51:41.684Z,21280.00
2018-06-16T08:52:41.623Z,21472.00
2018-06-16T08:53:41.615Z,21920.00
2018-06-16T08:54:41.836Z,22336.00
2018-06-16T08:55:41.706Z,22592.00
2018-06-16T08:56:41.564Z,22752.00
2018-06-16T08:57:41.553Z,22752.00
2018-06-16T08:58:41.537Z,22848.00
2018-06-16T08:59:42.284Z,22912.00
2018-06-16T09:00:41.550Z,22912.00
2018-06-16T09:01:41.489Z,23072.00
2018-06-16T09:02:41.478Z,23360.00
2018-06-16T09:03:41.461Z,23520.00
2018-06-16T09:04:41.492Z,23584.00
2018-06-16T09:05:41.439Z,23456.00
2018-06-16T09:06:41.425Z,23264.00
2018-06-16T09:07:41.457Z,22912.00
2018-06-16T09:08:41.396Z,22624.00
2018-06-16T09:09:41.438Z,22368.00
2018-06-16T09:10:41.355Z,22368.00
2018-06-16T09:11:41.389Z,22528.00
2018-06-16T09:12:41.370Z,22752.00
2018-06-16T09:13:41.316Z,22752.00
2018-06-16T09:14:41.311Z,22528.00
2018-06-16T09:15:41.284Z,22464.00
2018-06-16T09:16:41.330Z,22336.00
2018-06-16T09:17:41.257Z,22208.00
2018-06-16T09:18:41.241Z,21888.00
2018-06-16T09:19:41.228Z,21728.00
2018-06-16T09:20:41.213Z,21248.00
2018-06-16T09:21:41.241Z,20064.00
2018-06-16T09:22:41.235Z,18944.00
2018-06-16T09:23:41.223Z,18176.00
2018-06-16T09:24:41.160Z,17568.00
2018-06-16T09:25:41.137Z,17248.00
2018-06-16T09:26:41.131Z,16928.00
2018-06-16T09:27:41.159Z,17024.00
2018-06-16T09:28:41.147Z,16864.00
2018-06-16T09:29:41.093Z,16344.00
2018-06-16T09:30:41.124Z,16004.00
2018-06-16T09:31:41.108Z,15860.00
2018-06-16T09:32:41.039Z,15796.00
2018-06-16T09:33:41.027Z,15908.00
2018-06-16T09:34:41.007Z,16032.00
2018-06-16T09:35:41.049Z,16452.00
2018-06-16T09:36:40.980Z,17216.00
2018-06-16T09:37:40.960Z,17632.00
2018-06-16T09:38:40.947Z,17920.00
2018-06-16T09:39:40.930Z,17920.00
2018-06-16T09:40:40.984Z,17856.00
2018-06-16T09:41:40.908Z,17888.00
2018-06-16T09:42:40.887Z,18144.00
2018-06-16T09:43:40.884Z,17952.00
2018-06-16T09:44:40.858Z,17984.00
2018-06-16T09:45:40.877Z,17888.00
2018-06-16T09:46:40.833Z,18048.00
2018-06-16T09:47:40.812Z,17920.00
2018-06-16T09:48:40.832Z,18592.00
2018-06-16T09:49:40.780Z,19072.00
2018-06-16T09:50:40.763Z,19328.00
2018-06-16T09:51:40.752Z,19296.00
2018-06-16T09:52:40.750Z,19264.00
2018-06-16T09:53:40.777Z,19104.00
2018-06-16T09:54:40.704Z,19328.00
2018-06-16T09:55:40.715Z,19424.00
2018-06-16T09:56:40.673Z,19648.00
2018-06-16T09:57:40.704Z,19968.00
2018-06-16T09:58:40.688Z,20544.00
2018-06-16T09:59:40.655Z,20992.00
2018-06-16T10:00:40.611Z,21184.00
2018-06-16T10:01:40.608Z,20640.00
2018-06-16T10:02:40.626Z,20096.00
2018-06-16T10:03:40.624Z,18816.00
2018-06-16T10:04:40.553Z,18368.00
2018-06-16T10:05:40.537Z,18688.00
2018-06-16T10:06:40.537Z,19072.00
2018-06-16T10:07:40.505Z,20192.00
2018-06-16T10:08:40.553Z,19456.00
2018-06-16T10:09:40.489Z,18048.00
2018-06-16T10:10:40.477Z,16236.00
2018-06-16T10:11:40.444Z,15168.00
2018-06-16T10:12:40.433Z,14980.00
2018-06-16T10:13:40.459Z,16512.00
2018-06-16T10:14:41.315Z,17728.00
2018-06-16T10:15:40.390Z,18880.00
2018-06-16T10:16:40.377Z,20256.00
2018-06-16T10:17:40.370Z,20736.00
2018-06-16T10:18:40.386Z,21280.00
2018-06-16T10:19:40.377Z,22240.00
2018-06-16T10:20:40.315Z,22656.00
2018-06-16T10:21:40.295Z,23136.00
2018-06-16T10:22:40.294Z,23808.00
2018-06-16T10:23:40.271Z,23520.00
2018-06-16T10:24:40.315Z,23328.00
2018-06-16T10:25:40.807Z,22688.00
2018-06-16T10:26:40.228Z,22272.00
2018-06-16T10:27:40.208Z,21664.00
2018-06-16T10:28:40.196Z,21984.00
2018-06-16T10:29:40.237Z,21952.00
2018-06-16T10:30:40.169Z,21888.00
2018-06-16T10:31:40.149Z,23328.00
2018-06-16T10:32:40.137Z,23776.00
2018-06-16T10:33:40.122Z,23200.00
2018-06-16T10:34:40.167Z,22656.00
2018-06-16T10:35:40.159Z,22880.00
2018-06-16T10:36:40.085Z,23264.00
2018-06-16T10:37:40.072Z,23392.00
2018-06-16T10:38:40.060Z,22624.00
2018-06-16T10:39:40.036Z,22240.00
2018-06-16T10:40:40.092Z,22400.00
2018-06-16T10:41:40.015Z,22272.00
2018-06-16T10:42:40.005Z,21536.00
2018-06-16T10:43:39.982Z,21216.00
2018-06-16T10:44:39.970Z,21536.00
2018-06-16T10:45:39.999Z,21888.00
2018-06-16T10:46:39.983Z,22016.00
2018-06-16T10:47:39.925Z,22272.00
2018-06-16T10:48:39.913Z,22208.00
2018-06-16T10:49:39.900Z,21920.00
2018-06-16T10:50:39.882Z,21504.00
2018-06-16T10:51:39.916Z,21344.00
2018-06-16T10:52:39.875Z,21568.00
2018-06-16T10:53:39.842Z,22336.00
2018-06-16T10:54:39.825Z,22944.00
2018-06-16T10:55:39.812Z,22912.00
2018-06-16T10:56:39.862Z,22400.00
2018-06-16T10:57:39.781Z,22560.00
2018-06-16T10:58:39.767Z,23328.00
2018-06-16T10:59:39.839Z,23360.00
2018-06-16T11:00:39.740Z,22432.00
2018-06-16T11:01:39.769Z,21952.00
2018-06-16T11:02:39.714Z,21344.00
2018-06-16T11:03:39.719Z,20448.00
2018-06-16T11:04:39.682Z,18880.00
2018-06-16T11:05:39.680Z,17664.00
2018-06-16T11:06:39.710Z,17184.00
2018-06-16T11:07:39.639Z,17088.00
2018-06-16T11:08:39.631Z,17248.00
2018-06-16T11:09:39.610Z,17312.00
2018-06-16T11:10:39.597Z,17696.00
2018-06-16T11:11:39.644Z,17888.00
2018-06-16T11:12:39.569Z,18112.00
2018-06-16T11:13:39.656Z,18496.00
2018-06-16T11:14:39.539Z,18176.00
2018-06-16T11:15:39.529Z,17920.00
2018-06-16T11:16:39.513Z,17376.00
2018-06-16T11:17:39.499Z,16608.00
2018-06-16T11:18:39.526Z,16072.00
2018-06-16T11:19:39.463Z,15284.00
2018-06-16T11:20:39.499Z,14616.00
2018-06-16T11:21:39.446Z,14440.00
2018-06-16T11:22:39.466Z,14088.00
2018-06-16T11:23:39.428Z,13972.00
2018-06-16T11:24:39.391Z,14080.00
2018-06-16T11:25:39.400Z,14472.00
2018-06-16T11:26:39.361Z,14740.00
2018-06-16T11:27:39.399Z,15104.00
2018-06-16T11:28:39.332Z,15596.00
2018-06-16T11:29:39.322Z,16416.00
2018-06-16T11:30:39.297Z,17184.00
2018-06-16T11:31:39.282Z,18176.00
2018-06-16T11:32:39.336Z,19232.00
2018-06-16T11:33:39.829Z,19808.00
2018-06-16T11:34:39.235Z,20192.00
2018-06-16T11:35:39.242Z,20608.00
2018-06-16T11:36:39.250Z,21248.00
2018-06-16T11:37:39.231Z,21536.00
2018-06-16T11:38:39.173Z,21920.00
2018-06-16T11:39:39.843Z,22080.00
2018-06-16T11:40:39.163Z,22336.00
2018-06-16T11:41:39.140Z,22720.00
2018-06-16T11:42:39.153Z,22976.00
2018-06-16T11:43:39.158Z,22944.00
2018-06-16T11:44:39.845Z,23008.00
2018-06-16T11:45:39.068Z,23168.00
2018-06-16T11:46:39.052Z,23136.00
2018-06-16T11:47:39.042Z,22912.00
2018-06-16T11:48:39.065Z,23264.00
2018-06-16T11:49:39.404Z,23488.00
2018-06-16T11:50:39.011Z,22464.00
2018-06-16T11:51:38.993Z,21728.00
2018-06-16T11:52:38.967Z,21344.00
2018-06-16T11:53:39.014Z,21504.00
2018-06-16T11:54:39.841Z,21664.00
2018-06-16T11:55:38.942Z,20448.00
2018-06-16T11:56:38.911Z,18976.00
2018-06-16T11:57:38.907Z,18208.00
2018-06-16T11:58:38.931Z,17376.00
2018-06-16T11:59:38.867Z,16560.00
2018-06-16T12:00:38.857Z,16668.00
2018-06-16T12:01:38.838Z,17536.00
2018-06-16T12:02:38.826Z,18528.00
2018-06-16T12:03:38.852Z,19104.00
2018-06-16T12:04:38.817Z,19104.00
2018-06-16T12:05:38.828Z,19520.00
2018-06-16T12:06:38.764Z,20256.00
2018-06-16T12:07:38.755Z,20832.00
2018-06-16T12:08:38.736Z,21312.00
2018-06-16T12:09:38.719Z,21344.00